Weather observations for the past three days for
Novato / Gnoss Field
Metric (Imperial)
Date Time (pdt) Wind (kph) Vis. (km) Weather Sky Cond. Temperature (ºC) Relative Humidity Wind Chill (°C) Heat Index (°C) Pressure Precipitation (cm)
Air Dwpt 6 hour altimeter (cm) sea level (mb) 1 hr 3 hr 6 hr
Max. Min.
09 12:15 Calm 16.09 Fair CLR 23 15 61% 76.12 0.0
09 11:55 Vrbl 9 16.09 Fair CLR 23 15 61% 76.15 0.0
09 11:35 Vrbl 11 16.09 Fair CLR 22 15 65% 76.15 0.0
09 11:15 N 6 16.09 Fair CLR 21 14 64% 76.15 0.0
09 10:55 Vrbl 6 16.09 Fair CLR 21 14 64% 76.15 0.0
09 10:35 NE 6 16.09 Fair CLR 20 13 64% 76.17 0.0
09 10:15 Calm 14.48 Fair CLR 19 13 68% 76.17 0.0
09 09:55 Calm 16.09 Fair CLR 18 12 68% 76.17 0.0
09 09:35 Calm 16.09 Fair CLR 17 12 73% 76.17 0.0
09 09:15 Calm 16.09 Fair CLR 16 12 77% 76.2 0.0
09 08:55 N 7 16.09 Fair CLR 15 12 82% 76.2 0.0
09 08:35 Calm 16.09 Fair CLR 14 11 82% 76.2 0.0
09 08:15 NE 6 14.48 Fair CLR 14 11 82% 76.2 0.0
09 07:55 Calm 16.09 Fair CLR 13 11 88% 76.2 0.0
09 07:35 N 6 14.48 Fair CLR 12 11 94% 76.17 0.0
09 07:15 Calm 16.09 Fair CLR 12 10 88% 76.17 0.0
09 06:55 Calm 14.48 Fair CLR 10 10 100% 76.15 0.0
09 06:35 Calm 14.48 Fair CLR 10 9 94% 76.15 0.0
09 06:15 Calm 16.09 Fair CLR 9 9 100% 76.15 0.0
09 05:55 Calm 16.09 Fair CLR 9 9 100% 76.15 0.0
09 05:35 Calm 16.09 Fair CLR 9 9 100% 76.15 0.0
09 05:15 Calm 11.27 Fair CLR 10 10 100% 76.12 0.0
09 04:55 Calm 11.27 Fair CLR 10 10 100% 76.15 0.0
09 04:35 Calm 16.09 Fair CLR 10 9 94% 76.15 0.0
09 04:15 Calm 16.09 Fair CLR 10 10 100% 76.15 0.0
09 03:55 Calm 16.09 Fair CLR 10 9 94% 76.15 0.0
09 03:35 Calm 16.09 Fair CLR 10 9 94% 76.15 0.0
09 03:15 Calm 14.48 Fair CLR 9 9 100% 76.15 0.0
09 02:55 Calm 14.48 Fair CLR 10 10 100% 76.15 0.0
09 02:35 Calm 16.09 Fair CLR 10 10 100% 76.15 0.0
09 02:15 Calm 16.09 Fair CLR 10 10 100% 76.15 0.0
09 01:55 Calm 16.09 Fair CLR 10 10 100% 76.17 0.0
09 01:35 Calm 16.09 Fair CLR 10 10 100% 76.17 0.0
09 00:55 Calm 16.09 Fair CLR 11 10 94% 76.2 0.0
09 00:35 Calm 16.09 Fair CLR 11 10 94% 76.2 0.0
09 00:15 Calm 16.09 Fair CLR 11 10 94% 76.2 0.0
08 23:55 Calm 16.09 Fair CLR 11 11 100% 76.2 0.0
08 23:35 Calm 16.09 Fair CLR 11 11 100% 76.2 0.0
08 23:15 Calm 16.09 Fair CLR 12 11 94% 76.2 0.0
08 22:55 N 6 16.09 Fair CLR 12 11 94% 76.2 0.0
08 22:35 Calm 16.09 Fair CLR 13 12 94% 76.2 0.0
08 22:15 E 7 16.09 Fair CLR 12 11 94% 76.2 0.0
08 21:55 E 6 16.09 Fair CLR 13 11 88% 76.2 0.0
08 21:35 E 7 16.09 Fair CLR 13 11 88% 76.2 0.0
08 21:10 E 9 16.09 Fair CLR 14 11 82% 76.17 0.0
08 20:55 E 7 16.09 Fair CLR 13 10 82% 76.17 0.0
08 20:35 Calm 16.09 Fair CLR 14 10 77% 76.15 0.0
08 20:15 SE 7 16.09 Fair CLR 15 11 77% 76.15 0.0
08 19:55 SE 7 16.09 Fair CLR 15 11 77% 76.15 0.0
08 19:35 S 9 16.09 Fair CLR 16 11 72% 76.12 0.0
08 19:15 Vrbl 7 16.09 Fair CLR 18 11 64% 76.12 0.0
08 18:55 SW 13 16.09 Fair CLR 18 12 68% 76.12 0.0
08 18:35 S 11 16.09 Fair CLR 20 12 60% 76.12 0.0
08 18:15 S 15 16.09 Fair CLR 19 12 64% 76.15 0.0
08 17:35 S 11 16.09 Fair CLR 20 13 64% 76.17 0.0
08 17:15 S 9 G 24 16.09 Fair CLR 20 13 64% 76.17 0.0
08 16:55 S 19 16.09 Fair CLR 21 13 60% 76.17 0.0
08 16:35 SW 20 16.09 Fair CLR 21 13 60% 76.17 0.0
08 16:15 SW 20 16.09 Fair CLR 21 14 64% 76.2 0.0
08 15:55 SW 24 16.09 Fair CLR 21 14 64% 76.23 0.0
08 15:15 SW 24 16.09 Fair CLR 21 14 64% 76.25 0.0
08 14:55 SW 19 16.09 Fair CLR 22 14 61% 76.25 0.0
08 14:35 SW 15 G 28 16.09 Fair CLR 22 14 61% 76.28 0.0
08 14:15 SW 15 16.09 Fair CLR 22 14 61% 76.3 0.0
08 13:55 SW 17 16.09 Fair CLR 22 14 61% 76.33 0.0
08 13:35 W 13 G 24 16.09 Fair CLR 21 14 64% 76.33 0.0
08 13:15 SW 13 G 26 16.09 Fair CLR 20 13 64% 76.35 0.0
08 12:55 SW 22 16.09 Fair CLR 20 13 64% 76.35 0.0
08 12:30 SW 19 16.09 Fair CLR 19 13 68% 76.38 0.0
08 12:15 SW 19 16.09 Fair CLR 19 13 68% 76.38 0.0
08 11:55 SW 19 16.09 Fair CLR 19 13 68% 76.4 0.0
08 11:35 SW 20 16.09 Partly Cloudy SCT021 19 13 68% 76.4 0.0
08 11:15 Calm 16.09 Partly Cloudy SCT020 18 12 68% 76.43 0.0
08 10:55 N 11 16.09 Overcast OVC019 17 12 73% 76.43 0.0
08 10:35 Vrbl 6 16.09 Overcast OVC018 17 12 73% 76.43 0.0
08 10:15 Vrbl 6 16.09 Mostly Cloudy BKN016 16 12 77% 76.43 0.0
08 09:55 Calm 16.09 Overcast OVC015 15 11 77% 76.43 0.0
08 09:35 Calm 16.09 Overcast OVC012 14 11 82% 76.43 0.0
08 09:15 Calm 16.09 Overcast OVC011 14 11 82% 76.43 0.0
08 08:55 Calm 16.09 Overcast OVC012 14 11 82% 76.43 0.0
08 08:35 N 7 16.09 Overcast OVC010 13 11 88% 76.43 0.0
08 08:15 Calm 16.09 Overcast OVC010 13 11 88% 76.43 0.0
08 07:55 Calm 16.09 Overcast OVC013 13 11 88% 76.4 0.0
08 07:35 Calm 16.09 Overcast OVC014 13 10 82% 76.4 0.0
08 07:15 SE 7 16.09 Overcast OVC014 12 10 88% 76.38 0.0
08 06:55 Calm 16.09 Mostly Cloudy BKN014 12 10 88% 76.38 0.0
08 06:15 Calm 16.09 Overcast OVC012 12 10 88% 76.35 0.0
08 05:35 W 7 16.09 Overcast OVC011 12 10 88% 76.35 0.0
08 05:15 Vrbl 11 16.09 Overcast OVC011 12 10 88% 76.35 0.0
08 04:55 Calm 16.09 Overcast OVC010 12 11 94% 76.35 0.0
08 04:35 E 9 16.09 Overcast OVC010 12 11 94% 76.33 0.0
08 04:15 E 9 16.09 Overcast OVC010 12 11 94% 76.35 0.0
08 03:55 Calm 16.09 Overcast OVC010 11 11 100% 76.35 0.0
08 03:35 Calm 16.09 Overcast OVC010 11 10 94% 76.33 0.0
08 03:15 E 6 16.09 Mostly Cloudy BKN011 11 11 100% 76.35 0.0
08 02:55 W 7 16.09 A Few Clouds FEW011 10 10 100% 9 76.35 0.0
08 02:35 Vrbl 7 16.09 Partly Cloudy SCT011 11 10 94% 76.35 0.0
08 02:15 Calm 16.09 Fair CLR 10 10 100% 76.35 0.0
08 01:55 Vrbl 7 16.09 Fair CLR 10 10 100% 9 76.33 0.0
08 01:35 E 6 16.09 Fair CLR 10 10 100% 76.33 0.0
08 01:15 SE 7 16.09 Fair CLR 11 10 94% 76.35 0.0
08 00:35 E 9 16.09 Partly Cloudy SCT012 11 10 94% 76.35 0.0
08 00:15 SE 6 16.09 Partly Cloudy SCT012 11 11 100% 76.33 0.0
07 23:55 Vrbl 7 16.09 Partly Cloudy SCT012 12 11 94% 76.33 0.0
07 23:35 E 9 16.09 Mostly Cloudy BKN012 12 11 94% 76.33 0.0
07 23:15 E 7 16.09 Mostly Cloudy BKN012 12 11 94% 76.33 0.0
07 22:55 Vrbl 6 16.09 A Few Clouds FEW011 12 12 100% 76.35 0.0
07 22:35 Vrbl 7 16.09 A Few Clouds FEW010 12 11 94% 76.33 0.0
07 22:15 Vrbl 6 G 20 16.09 A Few Clouds FEW009 12 12 100% 76.33 0.0
07 21:55 Calm 16.09 Fair CLR 12 11 94% 76.33 0.0
07 21:35 Calm 16.09 Fair CLR 13 12 94% 76.33 0.0
07 21:15 SE 9 16.09 Fair CLR 13 11 88% 76.3 0.0
07 20:55 NE 9 16.09 Fair CLR 13 12 94% 76.28 0.0
07 20:35 SE 7 16.09 Fair CLR 13 12 94% 76.28 0.0
07 19:55 SE 7 16.09 Fair CLR 14 12 88% 76.25 0.0
07 19:35 Calm 16.09 Fair CLR 15 12 82% 76.23 0.0
07 19:15 Vrbl 6 16.09 Fair CLR 16 12 77% 76.25 0.0
07 18:55 Vrbl 9 16.09 Fair CLR 17 13 77% 76.23 0.0
07 18:35 Vrbl 11 16.09 Fair CLR 18 13 73% 76.25 0.0
07 18:15 S 15 16.09 Fair CLR 18 13 73% 76.25 0.0
07 17:55 Calm 16.09 Fair CLR 19 13 68% 76.25 0.0
07 17:35 N 13 16.09 Fair CLR 19 14 73% 76.25 0.0
07 17:15 Calm 16.09 Fair CLR 20 13 64% 76.25 0.0
07 16:55 SW 13 G 22 16.09 Fair CLR 20 13 64% 76.25 0.0
07 16:35 Vrbl 7 G 28 16.09 Fair CLR 21 14 64% 76.25 0.0
07 16:15 SW 24 16.09 Fair CLR 21 14 64% 76.25 0.0
07 15:55 Vrbl 7 G 31 16.09 Fair CLR 22 15 65% 76.25 0.0
07 15:35 NW 28 16.09 Fair CLR 22 15 65% 76.25 0.0
07 15:15 NW 22 16.09 Fair CLR 23 16 65% 76.28 0.0
07 14:55 N 24 16.09 Fair CLR 22 16 69% 76.28 0.0
07 14:35 N 20 16.09 Fair CLR 23 16 65% 76.3 0.0
07 14:15 N 13 16.09 Fair CLR 23 16 65% 76.33 0.0
07 13:55 N 9 16.09 Fair CLR 23 16 65% 76.33 0.0
07 13:35 Vrbl 7 16.09 Fair CLR 23 16 65% 76.35 0.0
07 13:15 N 7 16.09 Fair CLR 22 15 65% 76.38 0.0
07 12:35 Calm 16.09 Fair CLR 20 14 69% 76.4 0.0
07 12:15 Calm 16.09 Fair CLR 20 14 69% 76.43 0.0
07 11:55 Calm 16.09 Partly Cloudy SCT016 19 14 73% 76.45 0.0
07 11:35 Vrbl 7 16.09 Overcast OVC015 19 13 68% 76.45 0.0
07 11:15 E 6 16.09 Overcast OVC013 18 13 73% 76.48 0.0
07 10:55 Calm 16.09 Overcast OVC013 17 12 73% 76.48 0.0
07 10:15 Calm 16.09 Overcast OVC012 15 12 82% 76.48 0.0
07 09:55 Calm 16.09 Overcast OVC009 14 12 88% 76.48 0.0
07 09:35 Calm 16.09 Overcast OVC009 14 12 88% 76.48 0.0
07 08:55 Calm 16.09 Overcast OVC008 13 11 88% 76.48 0.0
07 08:35 S 7 16.09 Overcast OVC007 12 11 94% 76.48 0.0
07 08:15 Calm 16.09 Overcast OVC007 12 11 94% 76.48 0.0
07 07:55 SW 6 16.09 Overcast OVC007 12 11 94% 76.48 0.0
07 07:35 SW 7 16.09 Overcast OVC007 12 11 94% 76.45 0.0
07 07:15 S 6 16.09 Overcast OVC007 12 11 94% 76.45 0.0
07 06:55 SW 9 16.09 Overcast OVC007 12 11 94% 76.43 0.0
07 06:35 SW 9 16.09 Overcast OVC007 12 11 94% 76.43 0.0
07 06:15 S 7 16.09 Overcast OVC007 12 11 94% 76.4 0.0
07 05:55 Calm 16.09 Overcast OVC007 12 11 94% 76.4 0.0
07 05:35 SW 13 16.09 Overcast OVC007 12 11 94% 76.4 0.0
07 05:15 Calm 16.09 Overcast OVC007 12 11 94% 76.4 0.0
07 04:55 NW 7 16.09 Overcast OVC008 12 11 94% 76.4 0.0
07 04:35 Calm 16.09 Overcast OVC007 12 11 94% 76.4 0.0
07 03:55 NE 6 16.09 Overcast OVC008 12 11 94% 76.4 0.0
07 03:35 SE 13 16.09 Overcast OVC007 13 12 94% 76.4 0.0
07 03:15 Calm 16.09 Overcast OVC007 13 11 88% 76.4 0.0
07 02:55 Calm 16.09 Overcast OVC008 12 11 94% 76.43 0.0
07 02:35 Calm 16.09 Overcast OVC008 13 11 88% 76.43 0.0
07 02:15 Calm 16.09 Overcast OVC008 13 11 88% 76.43 0.0
07 01:55 Calm 16.09 Overcast OVC008 13 11 88% 76.43 0.0
07 01:35 S 6 16.09 Overcast OVC008 13 11 88% 76.45 0.0
07 01:15 S 6 16.09 Overcast OVC008 12 11 94% 76.45 0.0
07 00:55 Calm 16.09 Mostly Cloudy BKN008 12 11 94% 76.45 0.0
07 00:35 W 13 16.09 Partly Cloudy SCT010 12 11 94% 76.45 0.0
07 00:15 Vrbl 6 16.09 Overcast OVC009 13 12 94% 76.45 0.0
06 23:55 Calm 16.09 Mostly Cloudy BKN009 BKN013 13 12 94% 76.45 0.0
06 23:35 NE 13 16.09 Fair CLR 12 12 100% 76.43 0.0
06 23:15 SW 7 16.09 Fair CLR 12 11 94% 76.4 0.0
06 22:55 E 11 16.09 Fair CLR 13 12 94% 76.43 0.0
06 22:35 NE 11 G 20 16.09 Fair CLR 13 12 94% 76.4 0.0
06 22:15 E 11 16.09 Fair CLR 13 12 94% 76.4 0.0
06 21:35 E 9 16.09 Fair CLR 13 12 94% 76.4 0.0
06 21:15 SE 11 16.09 Fair CLR 13 12 94% 76.4 0.0
06 20:55 E 9 16.09 Fair CLR 14 12 88% 76.4 0.0
06 20:35 Calm 16.09 Fair CLR 14 12 88% 76.4 0.0
06 20:15 SE 7 16.09 Fair CLR 14 12 88% 76.38 0.0
06 19:55 E 9 16.09 Fair CLR 15 12 82% 76.38 0.0
06 19:35 NW 15 16.09 Fair CLR 15 12 82% 76.38 0.0
06 18:55 N 15 16.09 Fair CLR 18 13 73% 76.38 0.0
06 18:35 NW 20 16.09 Fair CLR 18 13 73% 76.38 0.0
06 18:15 Calm 16.09 Fair CLR 19 13 68% 76.38 0.0
06 17:55 Vrbl 6 G 20 16.09 Fair CLR 21 14 64% 76.38 0.0
06 17:35 Calm 16.09 Fair CLR 21 14 64% 76.35 0.0
06 17:15 Vrbl 7 G 20 16.09 Fair CLR 22 15 65% 76.35 0.0
06 16:55 NW 20 16.09 Fair CLR 22 15 65% 76.35 0.0
06 16:35 NW 13 G 28 16.09 A Few Clouds FEW034 22 15 65% 76.35 0.0
06 16:15 SW 24 16.09 Mostly Cloudy BKN034 22 15 65% 76.35 0.0
06 15:55 SW 19 G 30 16.09 Overcast OVC033 22 15 65% 76.38 0.0
06 15:35 N 9 G 20 16.09 Mostly Cloudy BKN032 22 15 65% 76.38 0.0
06 15:15 N 20 16.09 Mostly Cloudy BKN032 22 16 69% 76.38 0.0
06 14:55 N 17 16.09 Overcast OVC033 23 15 61% 76.43 0.0
06 14:35 NW 20 16.09 Overcast OVC035 23 15 61% 76.43 0.0
06 14:15 NW 11 G 24 16.09 Mostly Cloudy BKN036 23 14 57% 76.43 0.0
06 13:55 Vrbl 7 G 20 16.09 Mostly Cloudy BKN038 24 15 57% 25 76.43 0.0
06 13:35 N 17 16.09 Overcast OVC040 25 16 57% 26 76.45 0.0
06 13:15 Vrbl 7 16.09 Overcast OVC039 23 13 53% 76.45 0.0
06 12:55 Calm 16.09 Overcast OVC040 23 13 53% 76.48 0.0
06 12:35 Vrbl 6 16.09 Partly Cloudy SCT041 23 13 53% 76.5 0.0
Date Time (pdt) Wind (kph) Vis. (km) Weather Sky Cond. Air Dwpt Max. Min. Relative Humidity Wind Chill (°C) Heat Index (°C) altimeter (cm) sea level (mb) 1 hr 3 hr 6 hr
6 hour
Temperature (ºC) Pressure Precipitation (cm)